Time;durP1;ratioP1;P1;durP2;ratioP2;P2;SDS_P1;SDS_P2;PMS_P1;PMS_P2;Temp;Humidity;BMP_temperature;BMP_pressure;BME280_temperature;BME280_humidity;BME280_pressure;Samples;Min_cycle;Max_cycle;Signal;HPM_P1;HPM_P2
2024/01/16 00:01:54;;;;;;;0.60;0.60;;;;;;;-1.25;100.00;100625.53;5056248;28;20074;-70
2024/01/16 00:04:43;;;;;;;0.60;0.60;;;;;;;-1.26;100.00;100633.31;5050901;28;20101;-70
2024/01/16 00:07:29;;;;;;;1.10;0.88;;;;;;;-1.31;100.00;100624.69;5034600;28;20039;-70
2024/01/16 00:10:15;;;;;;;0.98;0.85;;;;;;;-1.37;100.00;100625.53;5054954;28;20041;-70
2024/01/16 00:13:01;;;;;;;2.60;0.60;;;;;;;-1.40;100.00;100628.13;5056114;28;20059;-70
2024/01/16 00:15:47;;;;;;;1.65;0.50;;;;;;;-1.45;100.00;100627.25;5055840;28;20127;-69
2024/01/16 00:18:32;;;;;;;0.63;0.63;;;;;;;-1.47;100.00;100631.59;5055195;28;20289;-70
2024/01/16 00:21:18;;;;;;;1.60;0.60;;;;;;;-1.51;100.00;100636.75;5053568;28;20055;-70
2024/01/16 00:24:07;;;;;;;1.88;0.63;;;;;;;-1.53;100.00;100635.91;5053894;28;20055;-70
2024/01/16 00:26:53;;;;;;;0.70;0.70;;;;;;;-1.53;100.00;100643.69;5058638;28;20072;-71
2024/01/16 00:29:39;;;;;;;2.92;0.90;;;;;;;-1.52;100.00;100644.56;5055496;28;20480;-70
2024/01/16 00:32:25;;;;;;;2.40;0.80;;;;;;;-1.49;100.00;100659.28;5036826;28;20061;-71
2024/01/16 00:35:10;;;;;;;4.20;1.00;;;;;;;-1.49;100.00;100648.91;5054610;28;20102;-70
2024/01/16 00:37:56;;;;;;;3.63;1.00;;;;;;;-1.48;100.00;100655.84;5053328;28;20475;-71
2024/01/16 00:40:42;;;;;;;2.50;0.80;;;;;;;-1.47;100.00;100652.38;5056637;28;20079;-71
2024/01/16 00:43:28;;;;;;;3.75;0.80;;;;;;;-1.46;100.00;100646.31;5040739;28;20074;-71
2024/01/16 00:46:14;;;;;;;2.72;0.80;;;;;;;-1.44;100.00;100652.34;5039564;28;20032;-71
2024/01/16 00:48:59;;;;;;;1.65;0.88;;;;;;;-1.43;100.00;100660.16;5036412;28;20044;-70
2024/01/16 00:51:45;;;;;;;2.90;0.90;;;;;;;-1.42;100.00;100664.47;5050354;28;20089;-71
2024/01/16 00:54:31;;;;;;;1.00;0.95;;;;;;;-1.42;100.00;100653.25;5045471;28;20051;-71
2024/01/16 00:57:19;;;;;;;7.38;1.25;;;;;;;-1.44;100.00;100652.34;5051291;28;20107;-70
2024/01/16 01:00:05;;;;;;;4.97;1.00;;;;;;;-1.46;100.00;100661.88;5051030;28;20928;-71
2024/01/16 01:02:54;;;;;;;1.92;0.80;;;;;;;-1.48;100.00;100661.03;5050927;28;20041;-71
2024/01/16 01:05:40;;;;;;;5.15;1.10;;;;;;;-1.49;100.00;100662.75;5040046;28;20119;-71
2024/01/16 01:08:25;;;;;;;2.72;1.58;;;;;;;-1.53;100.00;100663.63;5036534;28;20037;-71
2024/01/16 01:11:12;;;;;;;5.15;1.10;;;;;;;-1.56;100.00;100654.09;5038003;28;20033;-71
2024/01/16 01:13:57;;;;;;;1.35;0.88;;;;;;;-1.53;100.00;100658.44;5050131;28;20028;-71
2024/01/16 01:16:43;;;;;;;4.43;0.93;;;;;;;-1.51;100.00;100657.53;5051486;28;20416;-71
2024/01/16 01:19:29;;;;;;;2.97;0.90;;;;;;;-1.45;100.00;100659.28;5024223;28;20039;-71
2024/01/16 01:22:15;;;;;;;4.80;1.17;;;;;;;-1.40;100.00;100656.69;5039461;28;20032;-71
2024/01/16 01:25:01;;;;;;;3.63;0.80;;;;;;;-1.39;100.00;100656.72;5054448;28;20032;-70
2024/01/16 01:27:47;;;;;;;0.77;0.60;;;;;;;-1.34;100.00;100653.22;5054023;28;20033;-71
2024/01/16 01:30:33;;;;;;;1.73;0.85;;;;;;;-1.36;100.00;100645.47;5055771;28;20104;-71
2024/01/16 01:33:21;;;;;;;3.33;0.70;;;;;;;-1.35;100.00;100644.59;5062444;28;20567;-70
2024/01/16 01:36:07;;;;;;;3.38;0.98;;;;;;;-1.33;100.00;100648.03;5074056;28;20040;-71
2024/01/16 01:38:55;;;;;;;1.83;0.98;;;;;;;-1.32;100.00;100648.94;5072259;28;20145;-71
2024/01/16 01:41:43;;;;;;;1.88;1.10;;;;;;;-1.32;100.00;100662.75;5072046;28;20088;-72
2024/01/16 01:44:29;;;;;;;5.07;1.15;;;;;;;-1.31;100.00;100656.69;5072103;28;20047;-71
2024/01/16 01:47:15;;;;;;;3.20;1.08;;;;;;;-1.27;100.00;100660.16;5071855;28;20078;-71
2024/01/16 01:50:03;;;;;;;1.42;0.70;;;;;;;-1.22;100.00;100666.22;5055888;28;20082;-70
2024/01/16 01:52:50;;;;;;;3.13;0.90;;;;;;;-1.19;100.00;100666.25;5053566;28;20039;-70
2024/01/16 01:55:36;;;;;;;1.50;0.90;;;;;;;-1.16;100.00;100667.97;5055570;28;21874;-70
2024/01/16 01:58:22;;;;;;;3.03;0.85;;;;;;;-1.14;100.00;100671.44;5041090;28;20184;-71
2024/01/16 02:01:09;;;;;;;0.70;0.70;;;;;;;-1.13;100.00;100676.63;5071297;28;20035;-70
2024/01/16 02:03:56;;;;;;;5.50;0.88;;;;;;;-1.14;100.00;100674.03;5051351;28;20457;-72
2024/01/16 02:06:44;;;;;;;4.32;0.70;;;;;;;-1.14;100.00;100681.84;5070692;28;20060;-72
2024/01/16 02:09:30;;;;;;;4.38;0.75;;;;;;;-1.17;100.00;100681.81;5073232;28;20148;-72
2024/01/16 02:12:15;;;;;;;3.63;0.90;;;;;;;-1.20;100.00;100672.28;5074101;28;20794;-71
2024/01/16 02:15:03;;;;;;;3.97;0.85;;;;;;;-1.25;100.00;100680.09;5056272;28;20188;-71
2024/01/16 02:17:48;;;;;;;1.40;0.80;;;;;;;-1.28;100.00;100684.41;5056275;28;20036;-71
2024/01/16 02:20:34;;;;;;;3.38;0.98;;;;;;;-1.34;100.00;100680.09;5056446;28;20040;-72
2024/01/16 02:23:26;;;;;;;2.55;0.73;;;;;;;-1.37;100.00;100685.25;5057984;28;20071;-70
2024/01/16 02:26:14;;;;;;;4.13;0.73;;;;;;;-1.39;100.00;100676.63;5063451;28;20051;-70
2024/01/16 02:29:06;;;;;;;3.72;0.80;;;;;;;-1.43;100.00;100673.16;5072526;28;20045;-72
2024/01/16 02:31:51;;;;;;;1.25;0.90;;;;;;;-1.45;100.00;100676.59;5074211;28;20032;-71
2024/01/16 02:34:38;;;;;;;0.60;0.60;;;;;;;-1.49;100.00;100673.13;5068557;28;20184;-72
2024/01/16 02:37:24;;;;;;;2.13;0.80;;;;;;;-1.51;100.00;100672.28;5073572;28;20071;-72
2024/01/16 02:40:10;;;;;;;6.60;1.00;;;;;;;-1.53;100.00;100667.06;5071128;28;20121;-71
2024/01/16 02:42:56;;;;;;;2.65;0.75;;;;;;;-1.53;100.00;100668.81;5070628;28;20125;-72
2024/01/16 02:45:42;;;;;;;0.80;0.80;;;;;;;-1.51;100.00;100677.47;5046316;28;20043;-72
2024/01/16 02:48:28;;;;;;;3.40;1.15;;;;;;;-1.49;100.00;100674.88;5072185;28;20839;-72
2024/01/16 02:51:15;;;;;;;4.68;1.00;;;;;;;-1.48;100.00;100679.22;5052691;28;20036;-71
2024/01/16 02:54:01;;;;;;;4.18;1.00;;;;;;;-1.46;100.00;100664.47;5072424;28;20035;-72
2024/01/16 02:56:46;;;;;;;2.92;1.10;;;;;;;-1.44;100.00;100674.00;5071264;28;20111;-72
2024/01/16 02:59:32;;;;;;;2.92;0.88;;;;;;;-1.44;100.00;100668.81;5069501;28;20040;-72
2024/01/16 03:02:18;;;;;;;2.47;1.02;;;;;;;-1.43;100.00;100673.16;5069922;28;20177;-72
2024/01/16 03:05:07;;;;;;;2.42;0.82;;;;;;;-1.44;100.00;100668.81;5053212;28;20086;-72
2024/01/16 03:07:52;;;;;;;3.38;0.90;;;;;;;-1.45;100.00;100661.00;5071436;28;20029;-72
2024/01/16 03:10:38;;;;;;;5.28;0.95;;;;;;;-1.44;100.00;100662.75;5072908;28;20051;-72
2024/01/16 03:13:24;;;;;;;4.40;0.93;;;;;;;-1.42;100.00;100661.88;5053241;28;20474;-71
2024/01/16 03:16:10;;;;;;;1.50;0.82;;;;;;;-1.40;100.00;100664.50;5071927;28;20040;-72
2024/01/16 03:18:56;;;;;;;2.08;1.00;;;;;;;-1.36;100.00;100663.66;5056309;28;20704;-72
2024/01/16 03:21:42;;;;;;;0.75;0.63;;;;;;;-1.34;100.00;100663.63;5071234;28;20044;-72
2024/01/16 03:24:28;;;;;;;1.80;0.60;;;;;;;-1.34;100.00;100655.84;5055902;28;20047;-71
2024/01/16 03:27:14;;;;;;;1.20;0.82;;;;;;;-1.38;100.00;100653.25;5054109;28;20051;-71
2024/01/16 03:30:01;;;;;;;0.60;0.60;;;;;;;-1.38;100.00;100654.97;5071931;28;20054;-71
2024/01/16 03:32:47;;;;;;;5.10;0.90;;;;;;;-1.38;100.00;100657.56;5071727;28;20499;-72
2024/01/16 03:35:32;;;;;;;2.58;0.70;;;;;;;-1.37;100.00;100656.69;5040124;28;20051;-72
2024/01/16 03:38:18;;;;;;;3.10;0.98;;;;;;;-1.38;100.00;100648.06;5053242;28;20039;-71
2024/01/16 03:41:06;;;;;;;5.28;0.93;;;;;;;-1.38;100.00;100647.16;5069469;28;20036;-71
2024/01/16 03:43:54;;;;;;;3.03;0.98;;;;;;;-1.39;100.00;100648.91;5073612;28;20042;-72
2024/01/16 03:46:40;;;;;;;1.83;1.00;;;;;;;-1.39;100.00;100653.22;5055737;28;20036;-71
2024/01/16 03:49:26;;;;;;;5.25;1.10;;;;;;;-1.40;100.00;100648.91;5074666;28;20036;-72
2024/01/16 03:52:12;;;;;;;7.55;1.25;;;;;;;-1.41;100.00;100647.19;5078173;28;20786;-72
2024/01/16 03:54:58;;;;;;;5.03;1.17;;;;;;;-1.40;100.00;100638.53;5057202;28;20043;-72
2024/01/16 03:57:43;;;;;;;3.55;0.82;;;;;;;-1.39;100.00;100640.25;5073262;28;20659;-72
2024/01/16 04:00:29;;;;;;;3.38;1.00;;;;;;;-1.40;100.00;100643.72;5074262;28;20032;-72
2024/01/16 04:03:15;;;;;;;2.65;0.75;;;;;;;-1.43;100.00;100641.97;5058729;28;20462;-72
2024/01/16 04:06:01;;;;;;;1.55;1.17;;;;;;;-1.43;100.00;100641.09;5060864;28;20052;-71
2024/01/16 04:08:46;;;;;;;6.80;0.90;;;;;;;-1.43;100.00;100649.75;5049322;28;20047;-72
2024/01/16 04:11:32;;;;;;;3.55;0.90;;;;;;;-1.41;100.00;100645.44;5061536;28;20052;-72
2024/01/16 04:14:18;;;;;;;2.00;0.90;;;;;;;-1.38;100.00;100648.06;5059185;28;20040;-72
2024/01/16 04:17:04;;;;;;;2.40;0.98;;;;;;;-1.35;100.00;100646.31;5071099;28;20093;-72
2024/01/16 04:19:49;;;;;;;1.77;0.75;;;;;;;-1.31;100.00;100651.50;5053782;28;20491;-71
2024/01/16 04:22:36;;;;;;;3.05;0.75;;;;;;;-1.29;100.00;100654.09;5062379;28;20509;-72
2024/01/16 04:25:21;;;;;;;3.40;1.00;;;;;;;-1.28;100.00;100651.53;5048697;28;20029;-71
2024/01/16 04:28:07;;;;;;;2.25;0.90;;;;;;;-1.28;100.00;100643.72;5060135;28;20456;-71
2024/01/16 04:30:53;;;;;;;7.03;1.50;;;;;;;-1.26;100.00;100644.59;5057934;28;20044;-71
2024/01/16 04:33:39;;;;;;;2.42;0.82;;;;;;;-1.23;100.00;100646.31;5075639;28;20450;-71
2024/01/16 04:36:25;;;;;;;1.42;0.90;;;;;;;-1.19;100.00;100642.88;5057109;28;20032;-71
2024/01/16 04:39:10;;;;;;;1.52;0.80;;;;;;;-1.16;100.00;100642.84;5075727;28;20036;-72
2024/01/16 04:41:56;;;;;;;4.88;1.20;;;;;;;-1.15;100.00;100649.78;5078774;28;20044;-71
2024/01/16 04:44:42;;;;;;;1.20;0.70;;;;;;;-1.13;100.00;100647.19;5064797;28;20056;-71
2024/01/16 04:47:27;;;;;;;3.65;1.00;;;;;;;-1.11;100.00;100651.53;5079220;28;20047;-71
2024/01/16 04:50:13;;;;;;;1.90;1.00;;;;;;;-1.09;100.00;100651.53;5058126;28;20037;-71
2024/01/16 04:53:02;;;;;;;3.40;0.98;;;;;;;-1.08;100.00;100642.88;5058966;28;20108;-71
2024/01/16 04:55:47;;;;;;;3.10;0.75;;;;;;;-1.08;100.00;100639.38;5057437;28;20036;-71
2024/01/16 04:58:33;;;;;;;3.33;1.42;;;;;;;-1.10;100.00;100644.56;5074127;28;20063;-72
2024/01/16 05:01:19;;;;;;;3.92;0.88;;;;;;;-1.12;100.00;100646.31;5075002;28;20047;-71
2024/01/16 05:04:05;;;;;;;5.18;1.10;;;;;;;-1.13;100.00;100640.25;5071648;28;20071;-71
2024/01/16 05:06:51;;;;;;;6.55;0.80;;;;;;;-1.15;100.00;100634.19;5075680;28;20040;-71
2024/01/16 05:09:37;;;;;;;5.35;0.90;;;;;;;-1.17;100.00;100628.13;5072267;28;20051;-72
2024/01/16 05:12:23;;;;;;;4.45;0.98;;;;;;;-1.19;100.00;100627.28;5074319;28;20044;-72
2024/01/16 05:15:11;;;;;;;3.67;1.05;;;;;;;-1.19;100.00;100622.09;5074693;28;20097;-72
2024/01/16 05:17:56;;;;;;;2.67;0.80;;;;;;;-1.20;100.00;100620.31;5077049;28;20028;-72
2024/01/16 05:20:42;;;;;;;4.68;1.05;;;;;;;-1.20;100.00;100624.69;5072433;28;20047;-72
2024/01/16 05:23:28;;;;;;;5.72;1.10;;;;;;;-1.18;100.00;100631.59;5064031;28;20473;-72
2024/01/16 05:26:14;;;;;;;6.95;1.40;;;;;;;-1.17;100.00;100627.25;5074990;28;20050;-72
2024/01/16 05:28:59;;;;;;;4.93;1.02;;;;;;;-1.18;100.00;100629.00;5073971;28;20029;-72
2024/01/16 05:31:45;;;;;;;6.95;1.30;;;;;;;-1.18;100.00;100620.34;5072643;28;20105;-72
2024/01/16 05:34:31;;;;;;;4.13;1.48;;;;;;;-1.16;100.00;100621.19;5056736;28;20052;-72
2024/01/16 05:37:16;;;;;;;3.30;1.20;;;;;;;-1.15;100.00;100618.59;5043924;28;20063;-72
2024/01/16 05:40:04;;;;;;;4.55;1.20;;;;;;;-1.12;100.00;100615.13;5073482;28;20079;-72
2024/01/16 05:42:50;;;;;;;4.97;1.15;;;;;;;-1.12;100.00;100615.13;5064938;28;20028;-72
2024/01/16 05:45:36;;;;;;;4.93;1.75;;;;;;;-1.12;100.00;100616.00;5056500;28;20116;-71
2024/01/16 05:48:22;;;;;;;6.05;2.10;;;;;;;-1.15;100.00;100617.75;5058609;28;20054;-72
2024/01/16 05:51:07;;;;;;;2.65;1.38;;;;;;;-1.15;100.00;100609.97;5074775;28;20028;-71
2024/01/16 05:53:54;;;;;;;6.00;1.05;;;;;;;-1.19;100.00;100613.41;5042855;28;20027;-72
2024/01/16 05:56:40;;;;;;;2.70;1.02;;;;;;;-1.23;100.00;100608.22;5057335;28;20039;-73
2024/01/16 05:59:25;;;;;;;4.00;1.00;;;;;;;-1.26;100.00;100605.63;5050782;28;20067;-73
2024/01/16 06:02:11;;;;;;;4.20;1.10;;;;;;;-1.27;100.00;100600.41;5044042;28;20040;-73
2024/01/16 06:05:00;;;;;;;5.30;1.15;;;;;;;-1.29;100.00;100605.63;5073880;28;20036;-72
2024/01/16 06:07:45;;;;;;;5.82;1.30;;;;;;;-1.31;100.00;100609.94;5059615;28;20028;-72
2024/01/16 06:10:33;;;;;;;3.42;1.40;;;;;;;-1.33;100.00;100609.09;5069818;28;20698;-71
2024/01/16 06:13:22;;;;;;;2.20;1.52;;;;;;;-1.34;100.00;100617.75;5071463;28;20060;-71
2024/01/16 06:16:08;;;;;;;1.98;1.30;;;;;;;-1.34;100.00;100617.75;5056557;28;20418;-72
2024/01/16 06:18:54;;;;;;;5.97;2.38;;;;;;;-1.32;100.00;100631.59;5055591;28;20035;-72
2024/01/16 06:21:47;;;;;;;5.22;3.20;;;;;;;-1.30;100.00;100635.03;5074616;28;20123;-71
2024/01/16 06:24:36;;;;;;;5.68;2.10;;;;;;;-1.21;100.00;100630.75;5076359;28;20059;-71
2024/01/16 06:27:22;;;;;;;1.90;1.80;;;;;;;-1.15;100.00;100625.53;5077973;28;20024;-73
2024/01/16 06:30:09;;;;;;;2.90;1.05;;;;;;;-1.14;100.00;100624.69;5063128;28;20118;-72
2024/01/16 06:32:55;;;;;;;2.60;0.93;;;;;;;-1.15;100.00;100630.75;5068664;28;20085;-72
2024/01/16 06:35:41;;;;;;;4.15;1.10;;;;;;;-1.16;100.00;100631.59;5056522;28;20040;-71
2024/01/16 06:38:27;;;;;;;2.00;1.00;;;;;;;-1.16;100.00;100628.97;5038649;28;20072;-72
2024/01/16 06:41:13;;;;;;;3.08;1.33;;;;;;;-1.16;100.00;100628.97;5054980;28;20105;-72
2024/01/16 06:43:59;;;;;;;8.13;1.10;;;;;;;-1.18;100.00;100628.13;5038278;28;20415;-71
2024/01/16 06:46:45;;;;;;;5.78;1.10;;;;;;;-1.18;100.00;100618.63;5055198;28;20558;-70
2024/01/16 06:49:31;;;;;;;3.50;0.80;;;;;;;-1.21;100.00;100618.59;5054294;28;20032;-72
2024/01/16 06:52:17;;;;;;;2.35;1.00;;;;;;;-1.22;100.00;100622.06;5055555;28;20068;-70
2024/01/16 06:55:03;;;;;;;3.20;1.00;;;;;;;-1.24;100.00;100624.66;5054098;28;20037;-71
2024/01/16 06:57:49;;;;;;;3.20;1.25;;;;;;;-1.27;100.00;100616.00;5054633;28;20987;-71
2024/01/16 07:00:35;;;;;;;3.80;1.10;;;;;;;-1.28;100.00;100617.75;5038763;28;20044;-72
2024/01/16 07:03:20;;;;;;;4.28;0.90;;;;;;;-1.27;100.00;100618.59;5056863;28;20085;-72
2024/01/16 07:06:06;;;;;;;4.07;1.00;;;;;;;-1.28;100.00;100614.28;5056028;28;20032;-72
2024/01/16 07:08:52;;;;;;;4.28;1.00;;;;;;;-1.28;100.00;100609.97;5054273;28;20555;-72
2024/01/16 07:11:41;;;;;;;1.90;1.10;;;;;;;-1.27;100.00;100608.22;5053082;28;20041;-72
2024/01/16 07:14:28;;;;;;;1.05;0.93;;;;;;;-1.26;100.00;100610.81;5039919;28;20028;-72
2024/01/16 07:17:14;;;;;;;1.92;1.30;;;;;;;-1.27;100.00;100622.06;5041090;28;20060;-72
2024/01/16 07:19:59;;;;;;;6.20;1.27;;;;;;;-1.28;100.00;100622.94;5056587;28;20037;-72
2024/01/16 07:22:45;;;;;;;6.43;1.40;;;;;;;-1.29;100.00;100625.53;5059437;28;20044;-73
2024/01/16 07:25:31;;;;;;;4.40;1.30;;;;;;;-1.30;100.00;100634.19;5059733;28;20136;-72
2024/01/16 07:28:17;;;;;;;4.68;1.50;;;;;;;-1.32;100.00;100631.59;5060668;28;20075;-73
2024/01/16 07:31:03;;;;;;;1.83;0.90;;;;;;;-1.30;100.00;100635.03;5060335;28;20041;-73
2024/01/16 07:33:48;;;;;;;5.50;1.35;;;;;;;-1.29;100.00;100643.72;5072368;28;20086;-73
2024/01/16 07:36:34;;;;;;;2.78;0.98;;;;;;;-1.26;100.00;100652.38;5078348;28;20039;-73
2024/01/16 07:39:22;;;;;;;2.60;1.33;;;;;;;-1.24;100.00;100657.59;5077707;28;20036;-73
2024/01/16 07:42:09;;;;;;;3.38;1.35;;;;;;;-1.23;100.00;100656.72;5080930;28;20028;-73
2024/01/16 07:44:55;;;;;;;2.80;1.35;;;;;;;-1.21;100.00;100657.56;5080485;28;20141;-72
2024/01/16 07:47:43;;;;;;;3.67;1.08;;;;;;;-1.16;100.00;100647.16;5079273;28;20079;-71
2024/01/16 07:50:30;;;;;;;3.00;1.10;;;;;;;-1.12;100.00;100652.41;5075070;28;20116;-69
2024/01/16 07:53:15;;;;;;;3.95;1.20;;;;;;;-1.05;100.00;100642.84;5075402;28;20120;-72
2024/01/16 07:56:01;;;;;;;2.03;1.25;;;;;;;-1.01;100.00;100647.19;5059662;28;20032;-72
2024/01/16 07:58:47;;;;;;;2.83;0.80;;;;;;;-1.01;100.00;100649.78;5077882;28;20145;-72
2024/01/16 08:01:33;;;;;;;3.80;1.25;;;;;;;-1.02;100.00;100650.66;5072037;28;20036;-71
2024/01/16 08:04:21;;;;;;;7.28;1.50;;;;;;;-1.04;100.00;100652.38;5075600;28;20036;-72
2024/01/16 08:07:08;;;;;;;2.08;1.17;;;;;;;-1.03;100.00;100664.50;5074758;28;20041;-73
2024/01/16 08:09:54;;;;;;;2.35;0.90;;;;;;;-1.04;100.00;100665.38;5073980;28;20144;-73
2024/01/16 08:12:39;;;;;;;0.77;0.77;;;;;;;-1.03;100.00;100674.88;5075619;28;20606;-73
2024/01/16 08:15:25;;;;;;;1.10;0.98;;;;;;;-1.01;100.00;100670.59;5059398;28;21600;-73
2024/01/16 08:18:11;;;;;;;2.45;1.10;;;;;;;-1.00;100.00;100674.91;5078404;28;20044;-72
2024/01/16 08:20:57;;;;;;;4.40;1.48;;;;;;;-0.99;100.00;100681.84;5057252;28;20097;-71
2024/01/16 08:23:43;;;;;;;2.95;1.00;;;;;;;-0.99;100.00;100676.63;5072781;28;20043;-72
2024/01/16 08:26:29;;;;;;;6.20;1.83;;;;;;;-0.97;100.00;100684.44;5073517;28;20029;-73
2024/01/16 08:29:15;;;;;;;6.60;2.10;;;;;;;-0.97;100.00;100674.88;5061783;28;20035;-72
2024/01/16 08:32:01;;;;;;;1.90;1.10;;;;;;;-0.95;100.00;100674.91;5053835;28;20540;-72
2024/01/16 08:34:46;;;;;;;4.18;1.00;;;;;;;-0.94;100.00;100674.03;5058875;28;20044;-73
2024/01/16 08:37:34;;;;;;;1.20;0.80;;;;;;;-0.94;100.00;100665.38;5063336;28;20040;-71
2024/01/16 08:40:19;;;;;;;2.13;0.90;;;;;;;-0.94;100.00;100660.19;5046625;28;20774;-71
2024/01/16 08:43:05;;;;;;;1.83;0.90;;;;;;;-0.93;100.00;100646.31;5074603;28;20944;-72
2024/01/16 08:45:51;;;;;;;2.05;0.85;;;;;;;-0.93;100.00;100646.31;5073982;28;20044;-72
2024/01/16 08:48:37;;;;;;;3.72;0.75;;;;;;;-0.96;100.00;100642.81;5076107;28;20035;-72
2024/01/16 08:51:23;;;;;;;2.90;0.77;;;;;;;-0.96;100.00;100650.63;5069778;28;21921;-72
2024/01/16 08:54:08;;;;;;;1.48;1.08;;;;;;;-0.98;100.00;100647.16;5052609;28;20619;-72
2024/01/16 08:56:54;;;;;;;1.40;0.60;;;;;;;-0.99;100.00;100655.84;5073142;28;20032;-72
2024/01/16 08:59:41;;;;;;;1.30;0.90;;;;;;;-1.00;100.00;100648.03;5072937;28;20040;-72
2024/01/16 09:02:28;;;;;;;0.70;0.68;;;;;;;-0.99;100.00;100663.63;5054599;28;20763;-71
2024/01/16 09:05:14;;;;;;;1.35;0.63;;;;;;;-0.96;100.00;100665.38;5052685;28;20545;-72
2024/01/16 09:08:02;;;;;;;1.27;0.80;;;;;;;-0.97;100.00;100656.69;5066746;28;20054;-72
2024/01/16 09:10:48;;;;;;;1.88;0.70;;;;;;;-0.92;100.00;100661.03;5071314;28;20043;-71
2024/01/16 09:13:33;;;;;;;1.42;0.82;;;;;;;-0.90;100.00;100662.78;5072552;28;20031;-72
2024/01/16 09:16:19;;;;;;;1.95;1.00;;;;;;;-0.85;100.00;100662.75;5065138;28;20051;-72
2024/01/16 09:19:09;;;;;;;1.70;1.10;;;;;;;-0.79;100.00;100652.34;5068816;28;20067;-72
2024/01/16 09:21:55;;;;;;;4.32;1.02;;;;;;;-0.71;100.00;100647.16;5073037;28;20040;-71
2024/01/16 09:24:41;;;;;;;1.45;0.80;;;;;;;-0.65;100.00;100654.06;5072140;28;20077;-72
2024/01/16 09:27:27;;;;;;;1.55;0.80;;;;;;;-0.64;100.00;100651.47;5068420;28;20047;-71
2024/01/16 09:30:13;;;;;;;3.42;0.68;;;;;;;-0.62;100.00;100651.44;5068762;28;20048;-72
2024/01/16 09:32:58;;;;;;;3.30;0.85;;;;;;;-0.62;100.00;100643.66;5068072;28;20116;-71
2024/01/16 09:35:45;;;;;;;2.47;0.90;;;;;;;-0.61;100.00;100642.81;5068882;28;20122;-73
2024/01/16 09:38:31;;;;;;;6.28;0.90;;;;;;;-0.62;100.00;100634.13;5065620;28;20116;-72
2024/01/16 09:41:17;;;;;;;1.65;0.70;;;;;;;-0.59;100.00;100639.31;5076169;28;22128;-72
2024/01/16 09:44:03;;;;;;;4.00;0.90;;;;;;;-0.55;100.00;100650.56;5056978;28;20024;-72
2024/01/16 09:46:50;;;;;;;2.83;0.70;;;;;;;-0.51;100.00;100657.50;5069639;28;20055;-72
2024/01/16 09:49:36;;;;;;;3.40;1.00;;;;;;;-0.48;100.00;100651.44;5062218;28;20036;-72
2024/01/16 09:52:22;;;;;;;4.65;1.13;;;;;;;-0.47;100.00;100655.75;5055725;28;20135;-72
2024/01/16 09:55:08;;;;;;;1.33;0.90;;;;;;;-0.45;100.00;100657.50;5074155;28;20037;-71
2024/01/16 09:57:55;;;;;;;5.30;1.17;;;;;;;-0.45;100.00;100673.09;5059835;28;20035;-71
2024/01/16 10:00:43;;;;;;;4.78;1.20;;;;;;;-0.46;100.00;100665.28;5073219;28;20041;-72
2024/01/16 10:03:31;;;;;;;3.95;1.30;;;;;;;-0.48;100.00;100661.84;5074693;28;20036;-72
2024/01/16 10:06:19;;;;;;;2.05;0.90;;;;;;;-0.50;100.00;100669.63;5043976;28;20119;-70
2024/01/16 10:09:06;;;;;;;3.63;1.60;;;;;;;-0.54;100.00;100657.53;5059214;28;20046;-71
2024/01/16 10:11:52;;;;;;;5.55;2.50;;;;;;;-0.58;100.00;100661.88;5074624;28;20551;-70
2024/01/16 10:14:40;;;;;;;7.07;2.63;;;;;;;-0.64;100.00;100653.19;5057987;28;20047;-70
2024/01/16 10:17:42;;;;;;;6.80;2.78;;;;;;;-0.72;100.00;100664.47;5077435;28;20516;-69
2024/01/16 10:20:35;;;;;;;4.47;2.33;;;;;;;-0.79;100.00;100662.75;5073764;28;20604;-71
2024/01/16 10:23:30;;;;;;;7.63;3.05;;;;;;;-0.84;100.00;100667.09;5058309;28;20518;-71
2024/01/16 10:26:17;;;;;;;3.60;2.28;;;;;;;-0.89;100.00;100661.03;5074005;28;20254;-70
2024/01/16 10:29:06;;;;;;;1.77;1.40;;;;;;;-0.93;100.00;100643.72;5072188;28;20097;-69
2024/01/16 10:31:53;;;;;;;3.60;2.20;;;;;;;-0.94;100.00;100658.44;5071766;28;20035;-71
2024/01/16 10:34:39;;;;;;;7.13;2.65;;;;;;;-0.94;100.00;100653.22;5073597;28;20101;-70
2024/01/16 10:37:25;;;;;;;3.53;2.38;;;;;;;-0.92;100.00;100653.25;5066019;28;20039;-70
2024/01/16 10:40:18;;;;;;;5.88;3.05;;;;;;;-0.90;100.00;100649.78;5050089;28;20044;-70
2024/01/16 10:43:05;;;;;;;3.38;1.48;;;;;;;-0.87;100.00;100646.31;5053254;28;20040;-70
2024/01/16 10:46:11;;;;;;;3.35;1.70;;;;;;;-0.83;100.00;100648.03;5070799;28;20036;-71
2024/01/16 10:49:01;;;;;;;4.28;2.42;;;;;;;-0.79;100.00;100649.75;5076823;28;20047;-70
2024/01/16 10:51:48;;;;;;;6.20;2.13;;;;;;;-0.77;100.00;100650.63;5059037;28;20039;-71
2024/01/16 10:54:37;;;;;;;8.43;2.50;;;;;;;-0.72;100.00;100658.41;5075026;28;20083;-72
2024/01/16 10:57:26;;;;;;;2.60;1.52;;;;;;;-0.70;100.00;100649.72;5050213;28;20569;-72
2024/01/16 11:00:12;;;;;;;2.40;1.42;;;;;;;-0.71;100.00;100648.00;5065557;28;20031;-72
2024/01/16 11:03:00;;;;;;;3.50;1.50;;;;;;;-0.72;100.00;100641.06;5049549;28;20040;-72
2024/01/16 11:05:46;;;;;;;3.15;1.35;;;;;;;-0.75;100.00;100627.22;5053126;28;20543;-72
2024/01/16 11:08:33;;;;;;;3.35;1.15;;;;;;;-0.73;100.00;100626.34;5060856;28;20028;-71
2024/01/16 11:11:18;;;;;;;2.42;1.50;;;;;;;-0.70;100.00;100623.72;5045638;28;20028;-72
2024/01/16 11:14:05;;;;;;;7.28;1.88;;;;;;;-0.66;100.00;100628.94;5055828;28;20394;-72
2024/01/16 11:16:51;;;;;;;2.00;1.25;;;;;;;-0.62;100.00;100617.63;5061327;28;20054;-70
2024/01/16 11:19:37;;;;;;;6.95;2.08;;;;;;;-0.59;100.00;100612.44;5062197;28;20040;-71
2024/01/16 11:22:23;;;;;;;4.30;1.75;;;;;;;-0.57;100.00;100615.91;5061053;28;20055;-70
2024/01/16 11:25:16;;;;;;;1.63;1.38;;;;;;;-0.56;100.00;100608.09;5056272;28;20043;-71
2024/01/16 11:28:13;;;;;;;2.77;1.63;;;;;;;-0.54;100.00;100608.09;5064770;28;20028;-71
2024/01/16 11:31:34;;;;;;;4.28;1.20;;;;;;;-0.50;100.00;100604.59;5047605;28;21057;-71
2024/01/16 11:34:42;;;;;;;1.85;1.50;;;;;;;-0.48;100.00;100600.25;5059494;28;20085;-71
2024/01/16 11:37:31;;;;;;;3.92;1.92;;;;;;;-0.46;100.00;100588.13;5078097;28;20036;-71
2024/01/16 11:40:26;;;;;;;4.10;1.70;;;;;;;-0.44;100.00;100585.53;5059879;28;20458;-71
2024/01/16 11:43:39;;;;;;;2.08;1.40;;;;;;;-0.46;100.00;100582.94;5076030;28;20055;-71
2024/01/16 11:47:00;;;;;;;2.95;1.45;;;;;;;-0.49;100.00;100582.91;5075468;28;20024;-71
2024/01/16 11:49:47;;;;;;;3.30;1.52;;;;;;;-0.51;100.00;100579.47;5062577;28;20070;-72
2024/01/16 11:52:44;;;;;;;2.78;1.80;;;;;;;-0.51;100.00;100574.28;5077352;28;20048;-70
2024/01/16 11:55:32;;;;;;;3.35;1.73;;;;;;;-0.53;100.00;100569.94;5061377;28;20062;-73
2024/01/16 11:58:52;;;;;;;3.28;1.90;;;;;;;-0.56;100.00;100569.09;5076992;28;20051;-70
2024/01/16 12:01:38;;;;;;;8.90;2.40;;;;;;;-0.56;100.00;100573.41;5073755;28;20403;-70
2024/01/16 12:04:24;;;;;;;6.60;2.22;;;;;;;-0.61;100.00;100567.38;5061769;28;20042;-72
2024/01/16 12:07:10;;;;;;;4.97;2.30;;;;;;;-0.62;100.00;100565.63;5075366;28;20065;-72
2024/01/16 12:10:01;;;;;;;6.78;2.28;;;;;;;-0.63;100.00;100567.38;5046052;28;20045;-72
2024/01/16 12:12:48;;;;;;;9.18;2.85;;;;;;;-0.62;100.00;100566.50;5071064;28;20035;-72
2024/01/16 12:15:34;;;;;;;6.50;3.42;;;;;;;-0.61;100.00;100562.19;5054726;28;20086;-71
2024/01/16 12:18:19;;;;;;;8.18;3.65;;;;;;;-0.59;100.00;100560.44;5072714;28;20029;-72
2024/01/16 12:21:09;;;;;;;6.57;3.38;;;;;;;-0.57;100.00;100561.28;5076288;28;20036;-72
2024/01/16 12:23:56;;;;;;;6.45;3.40;;;;;;;-0.55;100.00;100563.00;5059642;28;20032;-71
2024/01/16 12:26:41;;;;;;;9.25;4.38;;;;;;;-0.48;100.00;100563.00;5056400;28;20050;-71
2024/01/16 12:29:29;;;;;;;10.63;4.18;;;;;;;-0.44;100.00;100556.91;5061072;28;20036;-71
2024/01/16 12:32:15;;;;;;;11.10;3.83;;;;;;;-0.35;100.00;100559.47;5051292;28;20036;-71
2024/01/16 12:35:01;;;;;;;10.27;4.65;;;;;;;-0.26;100.00;100548.16;5053400;28;20426;-71
2024/01/16 12:38:00;;;;;;;11.70;3.67;;;;;;;-0.22;100.00;100535.97;5066212;28;20145;-71
2024/01/16 12:40:50;;;;;;;7.25;3.70;;;;;;;-0.20;100.00;100539.44;5074265;28;20067;-71
2024/01/16 12:43:39;;;;;;;7.70;3.80;;;;;;;-0.20;100.00;100542.03;5071350;28;20059;-73
2024/01/16 12:46:25;;;;;;;6.60;3.50;;;;;;;-0.24;100.00;100541.19;5058674;28;20115;-71
2024/01/16 12:49:11;;;;;;;6.18;2.90;;;;;;;-0.25;100.00;100544.66;5075217;28;20035;-71